createdAt,value
2019-03-27T00:01:42.040Z,11.50
2019-03-27T00:04:10.478Z,10.83
2019-03-27T00:06:38.923Z,10.03
2019-03-27T00:09:07.548Z,10.80
2019-03-27T00:11:35.956Z,10.40
2019-03-27T00:14:04.553Z,11.17
2019-03-27T00:16:32.970Z,10.57
2019-03-27T00:19:01.413Z,10.77
2019-03-27T00:21:29.849Z,10.67
2019-03-27T00:23:58.268Z,9.43
2019-03-27T00:26:26.718Z,10.30
2019-03-27T00:28:55.213Z,11.00
2019-03-27T00:31:23.657Z,10.00
2019-03-27T00:33:52.087Z,11.30
2019-03-27T00:36:20.549Z,9.53
2019-03-27T00:38:48.978Z,10.40
2019-03-27T00:41:17.439Z,11.40
2019-03-27T00:43:45.859Z,11.33
2019-03-27T00:46:14.276Z,11.53
2019-03-27T00:48:42.716Z,10.17
2019-03-27T00:51:11.139Z,9.47
2019-03-27T00:53:39.545Z,9.90
2019-03-27T00:56:08.041Z,9.80
2019-03-27T00:58:36.528Z,10.73
2019-03-27T01:01:09.479Z,9.50
2019-03-27T01:03:37.886Z,10.43
2019-03-27T01:06:06.615Z,10.00
2019-03-27T01:08:35.036Z,11.47
2019-03-27T01:11:03.571Z,10.23
2019-03-27T01:13:32.120Z,11.43
2019-03-27T01:16:00.545Z,10.93
2019-03-27T01:18:28.964Z,10.50
2019-03-27T01:20:57.444Z,9.40
2019-03-27T01:23:25.943Z,10.93
2019-03-27T01:25:54.389Z,10.90
2019-03-27T01:28:22.822Z,10.07
2019-03-27T01:30:51.228Z,10.80
2019-03-27T01:33:19.693Z,10.60
2019-03-27T01:35:48.122Z,10.40
2019-03-27T01:38:16.541Z,10.20
2019-03-27T01:40:44.976Z,11.70
2019-03-27T01:43:13.413Z,11.03
2019-03-27T01:45:52.419Z,11.50
2019-03-27T01:48:11.999Z,11.50
2019-03-27T01:50:40.433Z,9.63
2019-03-27T01:53:08.911Z,10.87
2019-03-27T01:55:37.321Z,11.90
2019-03-27T01:58:05.762Z,12.10
2019-03-27T02:00:34.196Z,10.97
2019-03-27T02:03:02.646Z,12.07
2019-03-27T02:05:31.308Z,11.63
2019-03-27T02:07:59.782Z,11.90
2019-03-27T02:10:28.268Z,11.63
2019-03-27T02:12:56.716Z,10.70
2019-03-27T02:15:25.144Z,12.00
2019-03-27T02:17:53.568Z,11.80
2019-03-27T02:20:22.002Z,12.60
2019-03-27T02:22:50.593Z,12.53
2019-03-27T02:25:19.052Z,11.50
2019-03-27T02:27:47.489Z,11.63
2019-03-27T02:30:16.059Z,12.77
2019-03-27T02:32:44.551Z,12.70
2019-03-27T02:35:13.064Z,11.37
2019-03-27T02:37:41.490Z,12.13
2019-03-27T02:40:10.256Z,13.00
2019-03-27T02:42:38.666Z,11.70
2019-03-27T02:45:07.686Z,12.07
2019-03-27T02:47:36.265Z,13.23
2019-03-27T02:50:06.791Z,12.33
2019-03-27T02:52:35.281Z,13.17
2019-03-27T02:55:05.279Z,12.70
2019-03-27T02:57:33.716Z,13.33
2019-03-27T03:00:02.152Z,12.80
2019-03-27T03:02:30.556Z,12.70
2019-03-27T03:04:59.003Z,12.60
2019-03-27T03:07:27.414Z,12.33
2019-03-27T03:09:55.884Z,12.27
2019-03-27T03:12:24.296Z,12.07
2019-03-27T03:14:52.757Z,12.50
2019-03-27T03:17:21.244Z,12.63
2019-03-27T03:19:49.654Z,14.63
2019-03-27T03:22:18.117Z,14.53
2019-03-27T03:24:46.541Z,13.60
2019-03-27T03:27:14.983Z,14.37
2019-03-27T03:29:43.401Z,14.40
2019-03-27T03:32:11.999Z,14.50
2019-03-27T03:34:40.495Z,13.87
2019-03-27T03:37:08.917Z,14.60
2019-03-27T03:39:37.353Z,14.80
2019-03-27T03:42:05.785Z,13.60
2019-03-27T03:44:34.287Z,14.30
2019-03-27T03:47:02.884Z,15.13
2019-03-27T03:49:31.349Z,13.77
2019-03-27T03:52:00.305Z,14.77
2019-03-27T03:54:28.981Z,14.40
2019-03-27T03:56:58.112Z,15.80
2019-03-27T03:59:28.242Z,14.70
2019-03-27T04:01:56.702Z,15.57
2019-03-27T04:04:25.778Z,13.87
2019-03-27T04:06:54.245Z,15.60
2019-03-27T04:09:22.670Z,13.77
2019-03-27T04:11:51.088Z,15.30
2019-03-27T04:14:19.521Z,14.87
2019-03-27T04:16:47.937Z,16.73
2019-03-27T04:19:16.429Z,15.80
2019-03-27T04:21:44.971Z,14.23
2019-03-27T04:24:13.548Z,14.43
2019-03-27T04:26:41.969Z,14.93
2019-03-27T04:29:10.442Z,15.40
2019-03-27T04:31:38.887Z,14.30
2019-03-27T04:34:07.441Z,15.90
2019-03-27T04:36:35.886Z,14.80
2019-03-27T04:39:05.196Z,16.10
2019-03-27T04:41:33.643Z,14.57
2019-03-27T04:44:02.421Z,14.57
2019-03-27T04:46:30.919Z,15.73
2019-03-27T04:48:59.441Z,15.10
2019-03-27T04:51:27.874Z,15.53
2019-03-27T04:53:56.390Z,14.63
2019-03-27T04:56:24.908Z,15.57
2019-03-27T04:58:53.378Z,14.73
2019-03-27T05:01:21.806Z,15.50
2019-03-27T05:03:50.707Z,14.57
2019-03-27T05:06:19.188Z,16.00
2019-03-27T05:08:47.701Z,15.13
2019-03-27T05:11:16.183Z,15.40
2019-03-27T05:13:44.638Z,14.57
2019-03-27T05:16:13.053Z,15.53
2019-03-27T05:18:41.466Z,15.90
2019-03-27T05:21:09.959Z,15.10
2019-03-27T05:23:38.425Z,16.20
2019-03-27T05:26:06.882Z,15.17
2019-03-27T05:28:35.300Z,15.87
2019-03-27T05:31:03.846Z,15.50
2019-03-27T05:33:32.854Z,16.70
2019-03-27T05:36:01.391Z,14.57
2019-03-27T05:38:29.833Z,15.00
2019-03-27T05:40:58.312Z,15.10
2019-03-27T05:43:26.752Z,17.07
2019-03-27T05:45:55.206Z,17.50
2019-03-27T05:48:23.642Z,17.50
2019-03-27T05:50:52.092Z,16.90
2019-03-27T05:53:20.534Z,17.37
2019-03-27T05:55:48.987Z,16.33
2019-03-27T05:58:17.409Z,16.70
2019-03-27T06:00:45.841Z,18.23
2019-03-27T06:03:14.286Z,17.10
2019-03-27T06:05:42.725Z,16.27
2019-03-27T06:08:11.148Z,18.57
2019-03-27T06:10:39.607Z,18.30
2019-03-27T06:13:08.052Z,19.87
2019-03-27T06:15:36.478Z,18.30
2019-03-27T06:18:12.963Z,18.57
2019-03-27T06:20:35.040Z,19.63
2019-03-27T06:23:03.560Z,18.80
2019-03-27T06:25:32.134Z,17.90
2019-03-27T06:28:00.760Z,18.90
2019-03-27T06:30:29.189Z,19.50
2019-03-27T06:32:57.625Z,19.80
2019-03-27T06:35:26.044Z,17.67
2019-03-27T06:37:54.521Z,19.30
2019-03-27T06:40:22.963Z,18.50
2019-03-27T06:42:51.418Z,19.03
2019-03-27T06:45:19.876Z,19.57
2019-03-27T06:47:48.349Z,20.00
2019-03-27T06:50:16.965Z,19.00
2019-03-27T06:52:45.425Z,20.30
2019-03-27T06:55:13.844Z,18.47
2019-03-27T06:57:42.392Z,19.70
2019-03-27T07:00:11.539Z,19.30
2019-03-27T07:02:39.982Z,20.10
2019-03-27T07:05:08.673Z,19.10
2019-03-27T07:07:37.266Z,19.40
2019-03-27T07:10:07.446Z,20.20
2019-03-27T07:12:35.864Z,17.50
2019-03-27T07:15:05.163Z,21.50
2019-03-27T07:17:33.585Z,20.50
2019-03-27T07:20:02.026Z,21.37
2019-03-27T07:22:30.464Z,20.67
2019-03-27T07:24:58.915Z,21.83
2019-03-27T07:27:27.363Z,21.90
2019-03-27T07:29:55.922Z,20.90
2019-03-27T07:32:24.354Z,21.47
2019-03-27T07:34:52.807Z,21.10
2019-03-27T07:37:21.238Z,20.33
2019-03-27T07:39:49.664Z,21.27
2019-03-27T07:42:18.095Z,19.87
2019-03-27T07:44:46.525Z,20.27
2019-03-27T07:47:14.965Z,21.90
2019-03-27T07:49:43.393Z,21.53
2019-03-27T07:52:11.810Z,20.40
2019-03-27T07:54:40.281Z,20.33
2019-03-27T07:57:10.243Z,21.90
2019-03-27T07:59:38.727Z,21.80
2019-03-27T08:02:07.193Z,20.57
2019-03-27T08:04:35.666Z,21.40
2019-03-27T08:07:04.276Z,19.83
2019-03-27T08:09:32.711Z,21.30
2019-03-27T08:12:02.864Z,21.60
2019-03-27T08:14:31.385Z,20.80
2019-03-27T08:16:59.805Z,19.90
2019-03-27T08:19:28.237Z,19.97
2019-03-27T08:21:56.684Z,21.40
2019-03-27T08:24:25.125Z,20.40
2019-03-27T08:26:53.560Z,23.60
2019-03-27T08:29:22.077Z,22.80
2019-03-27T08:31:50.530Z,20.43
2019-03-27T08:34:18.952Z,21.00
2019-03-27T08:36:47.434Z,21.23
2019-03-27T08:39:15.876Z,21.27
2019-03-27T08:41:44.321Z,20.43
2019-03-27T08:44:12.757Z,21.30
2019-03-27T08:46:41.266Z,21.63
2019-03-27T08:49:21.170Z,21.27
2019-03-27T08:51:39.990Z,19.70
2019-03-27T08:54:08.417Z,21.33
2019-03-27T08:56:36.893Z,19.60
2019-03-27T08:59:05.388Z,21.13
2019-03-27T09:01:33.836Z,19.93
2019-03-27T09:04:02.329Z,19.23
2019-03-27T09:06:33.931Z,17.67
2019-03-27T09:09:00.930Z,18.97
2019-03-27T09:11:29.399Z,18.77
2019-03-27T09:13:57.896Z,18.57
2019-03-27T09:16:26.363Z,16.57
2019-03-27T09:18:54.821Z,17.60
2019-03-27T09:21:23.344Z,16.20
2019-03-27T09:23:51.807Z,17.10
2019-03-27T09:26:20.249Z,15.23
2019-03-27T09:28:48.749Z,17.67
2019-03-27T09:31:17.190Z,15.03
2019-03-27T09:33:45.638Z,15.07
2019-03-27T09:36:14.056Z,12.87
2019-03-27T09:38:42.541Z,14.10
2019-03-27T09:41:11.025Z,15.07
2019-03-27T09:43:39.526Z,14.53
2019-03-27T09:46:07.946Z,14.70
2019-03-27T09:48:36.375Z,12.77
2019-03-27T09:51:04.870Z,12.53
2019-03-27T09:53:33.329Z,12.17
2019-03-27T09:56:01.770Z,11.90
2019-03-27T09:58:30.197Z,13.97
2019-03-27T10:00:58.993Z,15.07
2019-03-27T10:03:27.526Z,13.23
2019-03-27T10:05:56.086Z,10.20
2019-03-27T10:08:24.522Z,10.43
2019-03-27T10:10:52.980Z,11.60
2019-03-27T10:13:21.510Z,10.90
2019-03-27T10:15:49.941Z,10.97
2019-03-27T10:18:18.365Z,11.17
2019-03-27T10:20:46.812Z,11.73
2019-03-27T10:23:15.248Z,12.63
2019-03-27T10:25:43.691Z,10.63
2019-03-27T10:28:12.118Z,12.00
2019-03-27T10:30:40.597Z,10.23
2019-03-27T10:33:09.010Z,10.20
2019-03-27T10:35:37.593Z,10.43
2019-03-27T10:38:06.069Z,11.70
2019-03-27T10:40:34.509Z,10.80
2019-03-27T10:43:03.006Z,10.87
2019-03-27T10:45:31.522Z,9.10
2019-03-27T10:48:00.001Z,8.03
2019-03-27T10:50:28.449Z,8.30
2019-03-27T10:52:56.890Z,8.97
2019-03-27T10:55:25.336Z,9.30
2019-03-27T10:57:53.754Z,8.90
2019-03-27T11:00:22.264Z,10.50
2019-03-27T11:02:50.693Z,9.80
2019-03-27T11:05:19.150Z,10.57
2019-03-27T11:07:47.590Z,8.10
2019-03-27T11:10:16.212Z,8.43
2019-03-27T11:12:44.720Z,9.27
2019-03-27T11:15:13.525Z,9.17
2019-03-27T11:17:41.973Z,7.60
2019-03-27T11:20:10.627Z,7.53
2019-03-27T11:22:39.195Z,6.53
2019-03-27T11:25:07.957Z,8.60
2019-03-27T11:27:36.466Z,8.07
2019-03-27T11:30:08.482Z,7.00
2019-03-27T11:32:36.924Z,7.10
2019-03-27T11:35:05.977Z,7.37
2019-03-27T11:37:34.429Z,6.80
2019-03-27T11:40:02.930Z,6.90
2019-03-27T11:42:31.358Z,7.00
2019-03-27T11:44:59.776Z,6.67
2019-03-27T11:47:28.199Z,6.40
2019-03-27T11:49:56.648Z,6.70
2019-03-27T11:52:25.136Z,6.03
2019-03-27T11:54:53.554Z,5.67
2019-03-27T11:57:22.003Z,7.80
2019-03-27T11:59:54.112Z,8.23
2019-03-27T12:02:20.651Z,7.13
2019-03-27T12:04:49.051Z,7.70
2019-03-27T12:07:17.509Z,7.70
2019-03-27T12:09:45.983Z,7.10
2019-03-27T12:12:14.413Z,5.57
2019-03-27T12:14:43.156Z,5.80
2019-03-27T12:17:11.632Z,5.40
2019-03-27T12:19:40.078Z,6.20
2019-03-27T12:22:08.518Z,6.43
2019-03-27T12:24:36.951Z,6.90
2019-03-27T12:27:05.367Z,5.93
2019-03-27T12:29:33.849Z,7.53
2019-03-27T12:32:02.295Z,6.20
2019-03-27T12:34:30.742Z,6.53
2019-03-27T12:36:59.159Z,7.00
2019-03-27T12:39:27.677Z,7.13
2019-03-27T12:41:56.096Z,7.43
2019-03-27T12:44:24.579Z,6.73
2019-03-27T12:46:53.024Z,6.40
2019-03-27T12:49:21.472Z,6.43
2019-03-27T12:51:49.992Z,5.67
2019-03-27T12:54:18.434Z,6.40
2019-03-27T12:56:46.921Z,6.63
2019-03-27T12:59:15.353Z,6.43
2019-03-27T13:01:43.774Z,6.70
2019-03-27T13:04:12.260Z,5.73
2019-03-27T13:06:40.696Z,5.30
2019-03-27T13:09:09.332Z,6.87
2019-03-27T13:11:37.762Z,6.80
2019-03-27T13:14:06.178Z,6.83
2019-03-27T13:16:34.638Z,7.23
2019-03-27T13:19:03.053Z,5.67
2019-03-27T13:21:31.513Z,5.20
2019-03-27T13:23:59.918Z,5.50
2019-03-27T13:26:28.401Z,6.10
2019-03-27T13:28:56.869Z,6.37
2019-03-27T13:31:25.305Z,5.47
2019-03-27T13:33:53.725Z,5.83
2019-03-27T13:36:22.185Z,6.20
2019-03-27T13:38:50.585Z,6.00
2019-03-27T13:41:19.118Z,5.70
2019-03-27T13:43:47.649Z,4.60
2019-03-27T13:46:16.117Z,5.10
2019-03-27T13:48:44.557Z,4.90
2019-03-27T13:51:12.987Z,6.10
2019-03-27T13:53:41.425Z,7.20
2019-03-27T13:56:09.966Z,6.17
2019-03-27T13:58:38.393Z,6.97
2019-03-27T14:01:08.967Z,7.00
2019-03-27T14:03:37.009Z,6.10
2019-03-27T14:06:05.609Z,6.57
2019-03-27T14:08:34.031Z,6.50
2019-03-27T14:11:02.640Z,6.60
2019-03-27T14:13:31.074Z,6.73
2019-03-27T14:15:59.554Z,6.07
2019-03-27T14:18:28.017Z,6.30
2019-03-27T14:20:56.432Z,6.63
2019-03-27T14:23:24.914Z,6.80
2019-03-27T14:25:53.317Z,5.80
2019-03-27T14:28:21.756Z,6.80
2019-03-27T14:30:51.825Z,6.23
2019-03-27T14:33:20.599Z,5.80
2019-03-27T14:35:49.090Z,6.40
2019-03-27T14:38:17.620Z,5.73
2019-03-27T14:40:46.223Z,6.80
2019-03-27T14:43:14.796Z,5.90
2019-03-27T14:45:43.312Z,5.37
2019-03-27T14:48:11.804Z,5.73
2019-03-27T14:50:40.230Z,5.67
2019-03-27T14:53:08.793Z,5.27
2019-03-27T14:55:37.356Z,5.53
2019-03-27T14:58:05.897Z,4.00
2019-03-27T15:00:34.371Z,4.77
2019-03-27T15:03:02.810Z,4.97
2019-03-27T15:05:31.311Z,4.53
2019-03-27T15:07:59.712Z,4.90
2019-03-27T15:10:28.167Z,4.87
2019-03-27T15:12:56.583Z,3.40
2019-03-27T15:15:25.128Z,4.70
2019-03-27T15:17:53.626Z,4.13
2019-03-27T15:20:22.196Z,4.90
2019-03-27T15:22:50.743Z,4.10
2019-03-27T15:25:19.435Z,4.83
2019-03-27T15:27:47.880Z,3.73
2019-03-27T15:30:16.442Z,4.83
2019-03-27T15:32:45.275Z,4.90
2019-03-27T15:35:14.139Z,3.80
2019-03-27T15:37:42.610Z,4.27
2019-03-27T15:40:12.471Z,3.77
2019-03-27T15:42:40.953Z,3.70
2019-03-27T15:45:09.813Z,3.90
2019-03-27T15:47:38.325Z,4.30
2019-03-27T15:50:07.134Z,4.20
2019-03-27T15:52:37.023Z,3.67
2019-03-27T15:55:06.526Z,4.40
2019-03-27T15:57:35.020Z,4.60
2019-03-27T16:00:05.220Z,3.93
2019-03-27T16:02:34.755Z,3.63
2019-03-27T16:05:03.754Z,4.10
2019-03-27T16:07:32.260Z,3.70
2019-03-27T16:10:00.679Z,3.83
2019-03-27T16:12:29.153Z,3.20
2019-03-27T16:14:57.580Z,3.30
2019-03-27T16:17:26.030Z,3.00
2019-03-27T16:19:54.575Z,3.70
2019-03-27T16:22:23.141Z,3.20
2019-03-27T16:24:51.565Z,3.23
2019-03-27T16:27:20.005Z,3.03
2019-03-27T16:29:48.517Z,3.60
2019-03-27T16:32:16.975Z,3.43
2019-03-27T16:34:45.453Z,3.50
2019-03-27T16:37:13.926Z,3.53
2019-03-27T16:39:42.362Z,3.30
2019-03-27T16:42:10.777Z,3.53
2019-03-27T16:44:39.346Z,3.60
2019-03-27T16:47:07.869Z,3.27
2019-03-27T16:49:36.506Z,3.87
2019-03-27T16:52:05.082Z,2.80
2019-03-27T16:54:33.576Z,3.17
2019-03-27T16:57:02.002Z,2.60
2019-03-27T16:59:30.436Z,2.67
2019-03-27T17:01:58.880Z,2.57
2019-03-27T17:04:27.416Z,2.80
2019-03-27T17:06:55.972Z,3.20
2019-03-27T17:09:24.438Z,2.77
2019-03-27T17:11:52.865Z,2.53
2019-03-27T17:14:21.369Z,2.80
2019-03-27T17:16:49.778Z,2.70
2019-03-27T17:19:18.292Z,2.80
2019-03-27T17:21:46.812Z,2.67
2019-03-27T17:24:15.261Z,2.93
2019-03-27T17:26:43.690Z,2.23
2019-03-27T17:29:12.137Z,3.20
2019-03-27T17:31:40.542Z,2.53
2019-03-27T17:34:09.032Z,3.30
2019-03-27T17:36:37.522Z,2.63
2019-03-27T17:39:07.947Z,3.30
2019-03-27T17:41:36.702Z,3.00
2019-03-27T17:44:05.368Z,3.20
2019-03-27T17:46:33.825Z,3.40
2019-03-27T17:49:02.313Z,2.53
2019-03-27T17:51:30.763Z,3.43
2019-03-27T17:53:59.179Z,3.00
2019-03-27T17:56:27.918Z,3.60
2019-03-27T17:58:56.470Z,2.93
2019-03-27T18:01:24.908Z,3.53
2019-03-27T18:03:53.634Z,3.00
2019-03-27T18:06:22.143Z,2.97
2019-03-27T18:08:50.649Z,3.57
2019-03-27T18:11:19.088Z,3.07
2019-03-27T18:13:47.504Z,3.13
2019-03-27T18:16:17.267Z,3.00
2019-03-27T18:18:45.832Z,2.90
2019-03-27T18:21:14.351Z,3.27
2019-03-27T18:23:46.263Z,3.20
2019-03-27T18:26:12.929Z,3.63
2019-03-27T18:28:41.491Z,3.70
2019-03-27T18:31:10.063Z,3.70
2019-03-27T18:33:38.580Z,4.17
2019-03-27T18:36:07.097Z,3.23
2019-03-27T18:38:35.554Z,3.83
2019-03-27T18:41:04.722Z,4.40
2019-03-27T18:43:33.270Z,3.73
2019-03-27T18:46:01.743Z,4.33
2019-03-27T18:48:30.398Z,4.30
2019-03-27T18:50:59.006Z,3.90
2019-03-27T18:53:27.550Z,4.27
2019-03-27T18:55:56.070Z,4.90
2019-03-27T18:58:24.661Z,3.57
2019-03-27T19:00:53.065Z,4.17
2019-03-27T19:03:21.587Z,4.47
2019-03-27T19:05:50.016Z,5.00
2019-03-27T19:08:18.473Z,4.80
2019-03-27T19:10:46.973Z,5.13
2019-03-27T19:13:17.011Z,4.90
2019-03-27T19:15:45.569Z,5.00
2019-03-27T19:18:14.047Z,5.00
2019-03-27T19:20:42.541Z,6.60
2019-03-27T19:23:11.244Z,6.67
2019-03-27T19:25:39.838Z,5.60
2019-03-27T19:28:08.429Z,5.10
2019-03-27T19:30:37.023Z,5.07
2019-03-27T19:33:05.565Z,4.53
2019-03-27T19:35:34.166Z,5.20
2019-03-27T19:38:02.752Z,4.57
2019-03-27T19:40:31.252Z,4.53
2019-03-27T19:42:59.841Z,5.20
2019-03-27T19:45:28.441Z,4.77
2019-03-27T19:47:56.941Z,6.20
2019-03-27T19:50:25.549Z,5.70
2019-03-27T19:52:54.056Z,5.77
2019-03-27T19:55:22.692Z,9.03
2019-03-27T19:57:51.249Z,7.20
2019-03-27T20:00:20.626Z,9.80
2019-03-27T20:02:49.062Z,10.03
2019-03-27T20:05:17.559Z,8.70
2019-03-27T20:07:46.133Z,32.23
2019-03-27T20:10:15.001Z,34.10
2019-03-27T20:12:43.502Z,23.37
2019-03-27T20:15:13.050Z,10.33
2019-03-27T20:17:41.693Z,9.93
2019-03-27T20:20:10.504Z,10.13
2019-03-27T20:22:39.160Z,14.53
2019-03-27T20:25:09.398Z,20.30
2019-03-27T20:27:38.166Z,23.10
2019-03-27T20:30:15.324Z,15.47
2019-03-27T20:32:43.849Z,16.90
2019-03-27T20:35:12.499Z,25.83
2019-03-27T20:37:41.125Z,21.33
2019-03-27T20:40:09.898Z,14.00
2019-03-27T20:42:38.533Z,12.23
2019-03-27T20:45:07.392Z,9.77
2019-03-27T20:47:35.938Z,10.20
2019-03-27T20:50:06.246Z,11.30
2019-03-27T20:52:34.775Z,10.40
2019-03-27T20:55:03.483Z,19.23
2019-03-27T20:57:31.946Z,10.20
2019-03-27T21:00:00.439Z,10.07
2019-03-27T21:02:29.002Z,15.60
2019-03-27T21:04:57.431Z,10.73
2019-03-27T21:07:25.948Z,9.97
2019-03-27T21:09:54.481Z,11.03
2019-03-27T21:12:23.044Z,12.27
2019-03-27T21:14:51.468Z,9.47
2019-03-27T21:17:21.441Z,7.80
2019-03-27T21:19:49.888Z,8.20
2019-03-27T21:22:18.387Z,8.93
2019-03-27T21:24:46.873Z,8.80
2019-03-27T21:27:16.873Z,8.63
2019-03-27T21:29:45.450Z,8.97
2019-03-27T21:32:13.917Z,7.97
2019-03-27T21:34:42.485Z,8.70
2019-03-27T21:37:10.997Z,8.10
2019-03-27T21:39:39.447Z,7.63
2019-03-27T21:42:07.855Z,7.70
2019-03-27T21:44:36.313Z,7.53
2019-03-27T21:47:04.784Z,8.60
2019-03-27T21:49:33.261Z,8.77
2019-03-27T21:52:01.713Z,10.70
2019-03-27T21:54:30.203Z,9.57
2019-03-27T21:56:58.686Z,10.47
2019-03-27T21:59:27.154Z,9.20
2019-03-27T22:01:55.637Z,14.73
2019-03-27T22:04:24.065Z,16.93
2019-03-27T22:06:52.496Z,18.23
2019-03-27T22:09:21.092Z,12.37
2019-03-27T22:11:49.621Z,12.80
2019-03-27T22:14:18.091Z,15.57
2019-03-27T22:16:46.530Z,16.87
2019-03-27T22:19:14.993Z,12.00
2019-03-27T22:21:43.494Z,10.50
2019-03-27T22:24:11.988Z,8.37
2019-03-27T22:26:40.436Z,9.73
2019-03-27T22:29:08.900Z,13.40
2019-03-27T22:31:37.383Z,14.40
2019-03-27T22:34:05.869Z,18.67
2019-03-27T22:36:34.326Z,13.10
2019-03-27T22:39:02.819Z,7.93
2019-03-27T22:41:31.247Z,7.83
2019-03-27T22:43:59.683Z,7.87
2019-03-27T22:46:28.162Z,7.17
2019-03-27T22:48:56.618Z,7.57
2019-03-27T22:51:25.116Z,7.50
2019-03-27T22:53:53.615Z,6.63
2019-03-27T22:56:22.071Z,7.57
2019-03-27T22:58:50.585Z,7.97
2019-03-27T23:01:19.193Z,8.00
2019-03-27T23:03:47.612Z,8.87
2019-03-27T23:06:16.308Z,8.27
2019-03-27T23:08:44.745Z,8.50
2019-03-27T23:11:13.194Z,7.87
2019-03-27T23:13:41.592Z,7.73
2019-03-27T23:16:10.057Z,8.20
2019-03-27T23:18:38.476Z,8.63
2019-03-27T23:21:06.989Z,7.33
2019-03-27T23:23:35.427Z,7.70
2019-03-27T23:26:03.858Z,7.33
2019-03-27T23:28:32.348Z,6.90
2019-03-27T23:31:00.789Z,7.80
2019-03-27T23:33:29.309Z,7.20
2019-03-27T23:35:57.733Z,7.83
2019-03-27T23:38:26.167Z,8.70
2019-03-27T23:40:54.629Z,7.87
2019-03-27T23:43:23.141Z,7.67
2019-03-27T23:45:51.641Z,7.63
2019-03-27T23:48:20.083Z,7.87
2019-03-27T23:50:48.505Z,7.70
2019-03-27T23:53:16.972Z,8.80
2019-03-27T23:55:45.437Z,7.37
2019-03-27T23:58:13.904Z,8.03
